createdAt,value
2019-05-07T00:02:18.751Z,3.400000
2019-05-07T00:04:49.132Z,4.900000
2019-05-07T00:07:19.350Z,4.900000
2019-05-07T00:09:49.543Z,2.600000
2019-05-07T00:12:19.954Z,2.600000
2019-05-07T00:15:00.638Z,6.500000
2019-05-07T00:17:32.372Z,6.500000
2019-05-07T00:20:02.735Z,3.900000
2019-05-07T00:22:33.141Z,3.900000
2019-05-07T00:25:03.427Z,4.400000
2019-05-07T00:27:33.829Z,4.400000
2019-05-07T00:30:04.141Z,4.800000
2019-05-07T00:32:34.519Z,4.800000
2019-05-07T00:35:04.843Z,3.700000
2019-05-07T00:37:35.240Z,3.700000
2019-05-07T00:40:05.625Z,4.700000
2019-05-07T00:42:35.962Z,4.700000
2019-05-07T00:45:17.076Z,3.700000
2019-05-07T00:47:52.079Z,3.700000
2019-05-07T00:50:22.560Z,5.100000
2019-05-07T00:52:52.929Z,5.100000
2019-05-07T00:55:23.224Z,3.200000
2019-05-07T00:57:53.513Z,3.200000
2019-05-07T01:00:23.812Z,3.600000
2019-05-07T01:02:54.307Z,3.600000
2019-05-07T01:05:24.611Z,4.100000
2019-05-07T01:07:54.909Z,4.100000
2019-05-07T01:10:25.224Z,4.000000
2019-05-07T01:12:55.602Z,4.000000
2019-05-07T01:15:31.171Z,5.600000
2019-05-07T01:18:02.938Z,5.600000
2019-05-07T01:20:33.382Z,5.000000
2019-05-07T01:23:03.750Z,5.000000
2019-05-07T01:25:34.033Z,4.000000
2019-05-07T01:28:04.429Z,4.000000
2019-05-07T01:30:34.731Z,5.900000
2019-05-07T01:33:05.115Z,5.900000
2019-05-07T01:35:35.401Z,4.300000
2019-05-07T01:38:05.690Z,4.300000
2019-05-07T01:40:36.061Z,6.100000
2019-05-07T01:43:06.345Z,6.100000
2019-05-07T01:45:46.491Z,4.900000
2019-05-07T01:48:19.384Z,4.900000
2019-05-07T01:50:49.599Z,3.800000
2019-05-07T01:53:20.069Z,3.800000
2019-05-07T01:55:52.378Z,3.700000
2019-05-07T01:58:22.873Z,3.700000
2019-05-07T02:00:53.320Z,4.300000
2019-05-07T02:03:23.617Z,4.300000
2019-05-07T02:05:53.899Z,5.000000
2019-05-07T02:08:29.335Z,5.000000
2019-05-07T02:11:01.934Z,5.000000
2019-05-07T02:13:34.437Z,5.000000
2019-05-07T02:16:04.859Z,5.000000
2019-05-07T02:18:35.167Z,5.000000
2019-05-07T02:21:05.529Z,3.500000
2019-05-07T02:23:35.779Z,3.500000
2019-05-07T02:26:06.061Z,4.400000
2019-05-07T02:28:42.641Z,4.400000
2019-05-07T02:31:15.353Z,3.700000
2019-05-07T02:33:45.733Z,3.700000
2019-05-07T02:36:16.102Z,3.700000
2019-05-07T02:38:46.481Z,3.700000
2019-05-07T02:41:16.849Z,2.700000
2019-05-07T02:43:47.327Z,2.700000
2019-05-07T02:46:29.585Z,3.200000
2019-05-07T02:49:03.171Z,5.200000
2019-05-07T02:51:33.831Z,5.200000
2019-05-07T02:54:04.173Z,3.500000
2019-05-07T02:56:34.613Z,3.500000
2019-05-07T02:59:04.964Z,3.600000
2019-05-07T03:01:35.335Z,3.600000
2019-05-07T03:04:05.702Z,5.400000
2019-05-07T03:06:36.168Z,5.400000
2019-05-07T03:09:06.655Z,5.000000
2019-05-07T03:11:37.012Z,5.000000
2019-05-07T03:14:07.490Z,4.200000
2019-05-07T03:16:43.230Z,4.200000
2019-05-07T03:19:15.610Z,4.400000
2019-05-07T03:21:45.975Z,4.400000
2019-05-07T03:24:16.357Z,2.800000
2019-05-07T03:26:46.637Z,2.800000
2019-05-07T03:29:16.835Z,5.000000
2019-05-07T03:31:47.668Z,5.000000
2019-05-07T03:34:18.189Z,6.000000
2019-05-07T03:36:49.182Z,6.000000
2019-05-07T03:39:19.749Z,4.400000
2019-05-07T03:41:52.904Z,4.400000
2019-05-07T03:44:24.073Z,3.600000
2019-05-07T03:47:01.885Z,3.600000
2019-05-07T03:49:36.568Z,6.300000
2019-05-07T03:52:06.877Z,6.300000
2019-05-07T03:54:37.268Z,6.100000
2019-05-07T03:57:11.214Z,6.100000
2019-05-07T03:59:44.995Z,4.200000
2019-05-07T04:02:15.329Z,4.200000
2019-05-07T04:04:45.736Z,7.400000
2019-05-07T04:07:16.119Z,7.400000
2019-05-07T04:09:46.507Z,5.200000
2019-05-07T04:12:16.810Z,5.200000
2019-05-07T04:14:47.158Z,4.500000
2019-05-07T04:17:22.233Z,4.500000
2019-05-07T04:19:56.786Z,5.000000
2019-05-07T04:22:34.570Z,5.000000
2019-05-07T04:25:05.330Z,3.500000
2019-05-07T04:27:35.876Z,3.500000
2019-05-07T04:30:06.247Z,3.800000
2019-05-07T04:32:36.535Z,3.800000
2019-05-07T04:35:06.900Z,4.800000
2019-05-07T04:37:37.270Z,4.800000
2019-05-07T04:40:07.703Z,7.100000
2019-05-07T04:42:43.032Z,7.100000
2019-05-07T04:45:13.817Z,3.600000
2019-05-07T04:47:49.413Z,3.600000
2019-05-07T04:50:36.801Z,4.100000
2019-05-07T04:53:13.950Z,4.100000
2019-05-07T04:55:44.507Z,5.200000
2019-05-07T04:58:14.901Z,4.100000
2019-05-07T05:00:45.456Z,4.100000
2019-05-07T05:03:15.728Z,6.600000
2019-05-07T05:05:46.109Z,6.600000
2019-05-07T05:08:16.567Z,5.100000
2019-05-07T05:10:47.020Z,5.100000
2019-05-07T05:13:17.455Z,4.300000
2019-05-07T05:15:47.897Z,4.300000
2019-05-07T05:18:18.271Z,6.800000
2019-05-07T05:20:48.577Z,6.800000
2019-05-07T05:23:18.947Z,10.000000
2019-05-07T05:25:49.242Z,10.000000
2019-05-07T05:28:21.629Z,8.000000
2019-05-07T05:30:52.779Z,8.000000
2019-05-07T05:33:23.572Z,7.500000
2019-05-07T05:35:53.975Z,7.500000
2019-05-07T05:38:24.374Z,8.500000
2019-05-07T05:40:54.736Z,8.500000
2019-05-07T05:43:25.072Z,4.600000
2019-05-07T05:45:55.512Z,4.600000
2019-05-07T05:48:25.904Z,4.400000
2019-05-07T05:50:56.248Z,4.400000
2019-05-07T05:53:26.607Z,6.400000
2019-05-07T05:55:56.920Z,6.400000
2019-05-07T05:58:27.640Z,7.600000
2019-05-07T06:00:57.879Z,7.600000
2019-05-07T06:03:28.248Z,7.700000
2019-05-07T06:05:58.643Z,7.700000
2019-05-07T06:08:29.002Z,4.700000
2019-05-07T06:10:59.399Z,4.700000
2019-05-07T06:13:32.266Z,9.200000
2019-05-07T06:16:03.164Z,9.200000
2019-05-07T06:18:33.485Z,7.600000
2019-05-07T06:21:03.800Z,7.600000
2019-05-07T06:23:34.033Z,8.000000
2019-05-07T06:26:05.263Z,8.000000
2019-05-07T06:28:35.802Z,6.000000
2019-05-07T06:31:06.137Z,6.000000
2019-05-07T06:33:36.485Z,7.700000
2019-05-07T06:36:06.734Z,7.700000
2019-05-07T06:38:37.092Z,5.300000
2019-05-07T06:41:07.476Z,5.300000
2019-05-07T06:43:38.209Z,4.200000
2019-05-07T06:46:08.555Z,4.200000
2019-05-07T06:48:42.884Z,5.100000
2019-05-07T06:51:17.655Z,5.100000
2019-05-07T06:53:48.186Z,5.500000
2019-05-07T06:56:18.496Z,5.500000
2019-05-07T06:58:48.781Z,7.100000
2019-05-07T07:01:19.182Z,7.100000
2019-05-07T07:03:49.505Z,4.000000
2019-05-07T07:06:19.851Z,4.000000
2019-05-07T07:08:52.528Z,4.800000
2019-05-07T07:11:23.011Z,4.800000
2019-05-07T07:13:53.331Z,4.200000
2019-05-07T07:16:23.652Z,4.200000
2019-05-07T07:18:55.804Z,5.300000
2019-05-07T07:21:26.487Z,5.300000
2019-05-07T07:23:56.825Z,6.400000
2019-05-07T07:26:27.149Z,6.400000
2019-05-07T07:28:57.474Z,4.600000
2019-05-07T07:31:27.784Z,4.600000
2019-05-07T07:33:58.133Z,3.300000
2019-05-07T07:36:28.458Z,3.300000
2019-05-07T07:38:58.698Z,3.700000
2019-05-07T07:41:29.030Z,3.700000
2019-05-07T07:44:01.928Z,3.000000
2019-05-07T07:46:33.122Z,3.000000
2019-05-07T07:49:10.747Z,5.600000
2019-05-07T07:51:45.616Z,5.600000
2019-05-07T07:54:16.186Z,3.900000
2019-05-07T07:56:52.337Z,3.900000
2019-05-07T07:59:23.422Z,5.000000
2019-05-07T08:01:53.713Z,5.000000
2019-05-07T08:04:24.094Z,4.100000
2019-05-07T08:06:54.594Z,4.100000
2019-05-07T08:09:25.909Z,3.200000
2019-05-07T08:11:56.390Z,3.200000
2019-05-07T08:14:26.761Z,2.700000
2019-05-07T08:16:57.253Z,2.700000
2019-05-07T08:19:27.741Z,3.900000
2019-05-07T08:21:58.095Z,3.900000
2019-05-07T08:24:28.474Z,4.500000
2019-05-07T08:26:58.760Z,4.500000
2019-05-07T08:29:29.038Z,4.400000
2019-05-07T08:31:59.446Z,4.400000
2019-05-07T08:34:29.728Z,4.000000
2019-05-07T08:37:05.267Z,4.000000
2019-05-07T08:39:35.503Z,4.600000
2019-05-07T08:42:05.774Z,4.600000
2019-05-07T08:44:36.067Z,5.800000
2019-05-07T08:47:06.572Z,5.800000
2019-05-07T08:49:39.909Z,4.600000
2019-05-07T08:52:11.996Z,4.600000
2019-05-07T08:54:42.915Z,4.200000
2019-05-07T08:57:13.187Z,4.200000
2019-05-07T08:59:57.194Z,5.100000
2019-05-07T09:02:32.416Z,3.400000
2019-05-07T09:05:03.166Z,3.400000
2019-05-07T09:07:33.522Z,4.800000
2019-05-07T09:10:03.964Z,4.800000
2019-05-07T09:12:34.308Z,6.400000
2019-05-07T09:15:04.672Z,6.400000
2019-05-07T09:17:35.009Z,4.700000
2019-05-07T09:20:05.343Z,4.700000
2019-05-07T09:22:35.659Z,8.000000
2019-05-07T09:25:05.877Z,8.000000
2019-05-07T09:27:36.214Z,8.500000
2019-05-07T09:30:06.540Z,8.500000
2019-05-07T09:32:37.006Z,5.200000
2019-05-07T09:35:12.577Z,5.200000
2019-05-07T09:37:42.949Z,11.200000
2019-05-07T09:40:13.279Z,11.200000
2019-05-07T09:42:43.706Z,8.100000
2019-05-07T09:45:14.061Z,8.100000
2019-05-07T09:47:44.449Z,6.800000
2019-05-07T09:50:14.799Z,6.800000
2019-05-07T09:52:45.228Z,9.500000
2019-05-07T09:55:17.569Z,9.500000
2019-05-07T09:57:47.998Z,7.800000
2019-05-07T10:00:18.399Z,7.800000
2019-05-07T10:02:48.850Z,7.700000
2019-05-07T10:05:19.099Z,7.700000
2019-05-07T10:07:49.460Z,6.500000
2019-05-07T10:10:19.801Z,6.500000
2019-05-07T10:12:52.425Z,7.400000
2019-05-07T10:15:22.914Z,7.400000
2019-05-07T10:17:53.198Z,7.700000
2019-05-07T10:20:28.417Z,7.700000
2019-05-07T10:23:03.826Z,5.200000
2019-05-07T10:25:34.037Z,5.200000
2019-05-07T10:28:04.323Z,5.600000
2019-05-07T10:30:34.624Z,5.600000
2019-05-07T10:33:04.925Z,4.600000
2019-05-07T10:35:35.253Z,4.600000
2019-05-07T10:38:05.562Z,5.000000
2019-05-07T10:40:36.089Z,5.000000
2019-05-07T10:43:06.449Z,4.200000
2019-05-07T10:45:36.753Z,4.200000
2019-05-07T10:48:07.097Z,5.700000
2019-05-07T10:50:39.186Z,5.700000
2019-05-07T10:53:09.740Z,4.600000
2019-05-07T10:55:41.864Z,4.600000
2019-05-07T10:58:12.638Z,3.000000
2019-05-07T11:00:42.996Z,3.000000
2019-05-07T11:03:13.347Z,5.700000
2019-05-07T11:05:43.677Z,5.700000
2019-05-07T11:08:14.115Z,4.100000
2019-05-07T11:10:44.479Z,4.100000
2019-05-07T11:13:14.821Z,2.800000
2019-05-07T11:15:45.165Z,2.800000
2019-05-07T11:18:15.640Z,2.400000
2019-05-07T11:20:50.085Z,2.400000
2019-05-07T11:23:22.237Z,4.300000
2019-05-07T11:25:52.815Z,4.300000
2019-05-07T11:28:23.203Z,5.700000
2019-05-07T11:30:53.499Z,5.700000
2019-05-07T11:33:23.915Z,4.800000
2019-05-07T11:35:54.223Z,4.800000
2019-05-07T11:38:25.059Z,2.400000
2019-05-07T11:40:55.476Z,2.400000
2019-05-07T11:43:25.779Z,2.800000
2019-05-07T11:45:58.811Z,2.800000
2019-05-07T11:48:29.453Z,3.100000
2019-05-07T11:51:03.820Z,3.100000
2019-05-07T11:53:34.571Z,6.300000
2019-05-07T11:56:04.910Z,6.300000
2019-05-07T11:58:35.161Z,4.700000
2019-05-07T12:01:05.535Z,4.700000
2019-05-07T12:03:35.819Z,6.300000
2019-05-07T12:06:06.184Z,6.300000
2019-05-07T12:08:42.825Z,5.000000
2019-05-07T12:11:16.308Z,5.000000
2019-05-07T12:13:46.590Z,1.700000
2019-05-07T12:16:16.871Z,1.700000
2019-05-07T12:18:47.180Z,5.500000
2019-05-07T12:21:20.938Z,5.500000
2019-05-07T12:23:52.535Z,7.400000
2019-05-07T12:26:22.916Z,7.400000
2019-05-07T12:28:53.226Z,3.400000
2019-05-07T12:31:23.525Z,3.400000
2019-05-07T12:33:53.848Z,5.400000
2019-05-07T12:36:24.520Z,5.400000
2019-05-07T12:38:54.827Z,6.300000
2019-05-07T12:41:25.191Z,6.300000
2019-05-07T12:43:55.665Z,4.200000
2019-05-07T12:46:26.002Z,4.200000
2019-05-07T12:48:56.239Z,2.500000
2019-05-07T12:51:36.389Z,2.500000
2019-05-07T12:54:07.622Z,4.700000
2019-05-07T12:56:38.008Z,4.700000
2019-05-07T12:59:08.348Z,3.600000
2019-05-07T13:01:38.586Z,3.600000
2019-05-07T13:04:08.788Z,3.100000
2019-05-07T13:06:39.105Z,3.100000
2019-05-07T13:09:09.402Z,5.800000
2019-05-07T13:11:39.791Z,5.800000
2019-05-07T13:14:10.088Z,4.900000
2019-05-07T13:16:40.349Z,4.900000
2019-05-07T13:19:10.643Z,11.700000
2019-05-07T13:21:48.939Z,11.700000
2019-05-07T13:24:22.677Z,8.600000
2019-05-07T13:26:53.192Z,0.100000
2019-05-07T13:29:23.784Z,0.100000
2019-05-07T13:31:54.519Z,0.100000
2019-05-07T13:34:24.927Z,0.100000
2019-05-07T13:36:55.341Z,0.100000
2019-05-07T13:39:25.623Z,0.100000
2019-05-07T13:41:55.922Z,0.100000
2019-05-07T13:44:26.217Z,0.100000
2019-05-07T13:46:56.690Z,0.100000
2019-05-07T13:49:27.205Z,0.100000
2019-05-07T13:52:03.562Z,0.100000
2019-05-07T13:54:34.142Z,0.100000
2019-05-07T13:57:04.819Z,6.800000
2019-05-07T13:59:35.162Z,6.800000
2019-05-07T14:02:05.508Z,6.200000
2019-05-07T14:04:35.790Z,6.200000
2019-05-07T14:07:12.625Z,6.000000
2019-05-07T14:09:48.068Z,6.000000
2019-05-07T14:12:23.502Z,4.500000
2019-05-07T14:14:53.762Z,4.500000
2019-05-07T14:17:24.045Z,3.800000
2019-05-07T14:19:54.471Z,3.800000
2019-05-07T14:22:24.818Z,3.300000
2019-05-07T14:24:55.645Z,3.300000
2019-05-07T14:27:26.050Z,4.500000
2019-05-07T14:29:56.607Z,4.500000
2019-05-07T14:32:28.062Z,3.800000
2019-05-07T14:34:58.487Z,3.800000
2019-05-07T14:37:28.889Z,4.800000
2019-05-07T14:39:59.399Z,4.800000
2019-05-07T14:42:29.883Z,4.700000
2019-05-07T14:45:00.891Z,4.700000
2019-05-07T14:47:31.480Z,6.100000
2019-05-07T14:50:02.080Z,6.100000
2019-05-07T14:52:35.577Z,7.600000
2019-05-07T14:55:06.495Z,7.600000
2019-05-07T14:57:37.441Z,9.700000
2019-05-07T15:00:07.930Z,9.700000
2019-05-07T15:02:38.491Z,6.100000
2019-05-07T15:05:08.772Z,6.100000
2019-05-07T15:07:39.342Z,9.100000
2019-05-07T15:10:09.871Z,9.100000
2019-05-07T15:12:42.505Z,4.600000
2019-05-07T15:15:13.267Z,4.600000
2019-05-07T15:17:43.792Z,10.100000
2019-05-07T15:20:14.192Z,10.100000
2019-05-07T15:22:49.520Z,8.300000
2019-05-07T15:25:22.525Z,8.300000
2019-05-07T15:27:53.195Z,4.500000
2019-05-07T15:30:23.653Z,4.500000
2019-05-07T15:32:53.966Z,14.000000
2019-05-07T15:35:24.286Z,14.000000
2019-05-07T15:37:54.707Z,9.400000
2019-05-07T15:40:25.031Z,9.400000
2019-05-07T15:42:55.440Z,13.400000
2019-05-07T15:45:25.864Z,13.400000
2019-05-07T15:47:56.167Z,11.300000
2019-05-07T15:50:26.473Z,11.300000
2019-05-07T15:52:58.569Z,18.700000
2019-05-07T15:55:29.254Z,18.700000
2019-05-07T15:57:59.663Z,16.000000
2019-05-07T16:00:30.195Z,16.000000
2019-05-07T16:03:02.513Z,19.000000
2019-05-07T16:05:33.056Z,19.000000
2019-05-07T16:08:04.130Z,16.800000
2019-05-07T16:10:34.617Z,16.800000
2019-05-07T16:13:05.032Z,18.700000
2019-05-07T16:15:35.516Z,18.700000
2019-05-07T16:18:05.888Z,11.800000
2019-05-07T16:20:42.868Z,11.800000
2019-05-07T16:23:18.347Z,12.900000
2019-05-07T16:25:48.646Z,12.900000
2019-05-07T16:28:19.066Z,17.100000
2019-05-07T16:30:51.946Z,17.100000
2019-05-07T16:33:22.537Z,11.600000
2019-05-07T16:35:52.921Z,11.600000
2019-05-07T16:38:23.390Z,16.500000
2019-05-07T16:40:53.705Z,16.500000
2019-05-07T16:43:24.073Z,18.100000
2019-05-07T16:45:54.515Z,18.100000
2019-05-07T16:48:24.888Z,16.300000
2019-05-07T16:50:55.360Z,16.300000
2019-05-07T16:53:29.971Z,14.200000
2019-05-07T16:56:02.745Z,14.200000
2019-05-07T16:58:34.949Z,16.200000
2019-05-07T17:01:05.438Z,16.200000
2019-05-07T17:03:35.797Z,11.300000
2019-05-07T17:06:06.133Z,11.300000
2019-05-07T17:08:36.380Z,15.500000
2019-05-07T17:11:06.710Z,15.500000
2019-05-07T17:13:36.972Z,14.700000
2019-05-07T17:16:07.521Z,14.900000
2019-05-07T17:18:42.829Z,14.900000
2019-05-07T17:21:15.201Z,16.600000
2019-05-07T17:23:45.676Z,16.600000
2019-05-07T17:26:16.003Z,17.100000
2019-05-07T17:28:46.344Z,17.100000
2019-05-07T17:31:16.791Z,18.000000
2019-05-07T17:33:47.091Z,18.000000
2019-05-07T17:36:17.610Z,18.500000
2019-05-07T17:38:48.049Z,18.500000
2019-05-07T17:41:24.123Z,16.800000
2019-05-07T17:43:57.578Z,16.800000
2019-05-07T17:46:27.900Z,17.700000
2019-05-07T17:48:58.216Z,17.700000
2019-05-07T17:51:28.522Z,17.200000
2019-05-07T17:54:00.281Z,17.200000
2019-05-07T17:56:35.729Z,16.000000
2019-05-07T17:59:06.135Z,16.000000
2019-05-07T18:01:36.447Z,15.500000
2019-05-07T18:04:06.669Z,15.500000
2019-05-07T18:06:37.267Z,20.100000
2019-05-07T18:09:07.600Z,20.100000
2019-05-07T18:11:38.221Z,18.000000
2019-05-07T18:14:08.620Z,18.000000
2019-05-07T18:16:39.049Z,19.900000
2019-05-07T18:19:09.433Z,19.900000
2019-05-07T18:21:41.511Z,17.100000
2019-05-07T18:24:16.457Z,17.100000
2019-05-07T18:26:47.134Z,13.900000
2019-05-07T18:29:17.496Z,13.900000
2019-05-07T18:31:47.885Z,16.700000
2019-05-07T18:34:18.273Z,16.700000
2019-05-07T18:36:48.540Z,16.400000
2019-05-07T18:39:20.411Z,16.400000
2019-05-07T18:41:52.271Z,15.800000
2019-05-07T18:44:29.883Z,15.800000
2019-05-07T18:47:02.368Z,22.000000
2019-05-07T18:49:32.836Z,22.000000
2019-05-07T18:52:03.334Z,21.700000
2019-05-07T18:54:35.334Z,21.700000
2019-05-07T18:57:05.650Z,17.000000
2019-05-07T18:59:36.138Z,17.000000
2019-05-07T19:02:06.418Z,17.900000
2019-05-07T19:04:36.779Z,17.900000
2019-05-07T19:07:07.061Z,18.000000
2019-05-07T19:09:37.492Z,18.000000
2019-05-07T19:12:07.916Z,15.000000
2019-05-07T19:14:38.295Z,15.000000
2019-05-07T19:17:08.653Z,18.100000
2019-05-07T19:19:39.016Z,18.100000
2019-05-07T19:22:09.392Z,15.300000
2019-05-07T19:24:45.381Z,15.300000
2019-05-07T19:27:18.385Z,17.900000
2019-05-07T19:29:48.790Z,17.900000
2019-05-07T19:32:19.106Z,17.400000
2019-05-07T19:34:49.653Z,17.400000
2019-05-07T19:37:22.263Z,18.100000
2019-05-07T19:39:52.683Z,18.100000
2019-05-07T19:42:23.106Z,18.700000
2019-05-07T19:44:53.422Z,18.700000
2019-05-07T19:47:23.771Z,14.100000
2019-05-07T19:49:54.143Z,14.100000
2019-05-07T19:52:24.649Z,18.000000
2019-05-07T19:55:00.827Z,18.000000
2019-05-07T19:57:33.241Z,17.500000
2019-05-07T20:00:03.839Z,17.500000
2019-05-07T20:02:39.172Z,20.800000
2019-05-07T20:05:09.552Z,20.800000
2019-05-07T20:07:39.820Z,19.400000
2019-05-07T20:10:12.119Z,19.400000
2019-05-07T20:12:42.902Z,18.300000
2019-05-07T20:15:13.375Z,18.300000
2019-05-07T20:17:43.701Z,17.400000
2019-05-07T20:20:17.369Z,17.400000
2019-05-07T20:22:49.004Z,20.900000
2019-05-07T20:25:22.592Z,20.900000
2019-05-07T20:27:53.403Z,18.500000
2019-05-07T20:30:24.036Z,18.500000
2019-05-07T20:32:54.337Z,16.100000
2019-05-07T20:35:24.845Z,16.100000
2019-05-07T20:37:55.155Z,15.500000
2019-05-07T20:40:25.650Z,17.000000
2019-05-07T20:42:55.942Z,17.000000
2019-05-07T20:45:26.329Z,15.400000
2019-05-07T20:47:57.045Z,15.400000
2019-05-07T20:50:27.480Z,16.500000
2019-05-07T20:52:57.727Z,16.500000
2019-05-07T20:55:31.035Z,15.700000
2019-05-07T20:58:04.054Z,15.700000
2019-05-07T21:00:34.392Z,15.100000
2019-05-07T21:03:04.778Z,15.100000
2019-05-07T21:05:35.062Z,18.000000
2019-05-07T21:08:05.397Z,18.000000
2019-05-07T21:10:35.816Z,19.600000
2019-05-07T21:13:06.257Z,19.600000
2019-05-07T21:15:36.575Z,15.800000
2019-05-07T21:18:07.136Z,15.800000
2019-05-07T21:20:37.543Z,17.600000
2019-05-07T21:23:07.875Z,17.600000
2019-05-07T21:25:45.484Z,16.900000
2019-05-07T21:28:16.231Z,16.900000
2019-05-07T21:30:46.661Z,13.300000
2019-05-07T21:33:17.237Z,13.300000
2019-05-07T21:35:47.546Z,17.000000
2019-05-07T21:38:17.800Z,17.000000
2019-05-07T21:40:48.126Z,18.700000
2019-05-07T21:43:18.573Z,18.700000
2019-05-07T21:45:48.909Z,13.100000
2019-05-07T21:48:19.260Z,13.100000
2019-05-07T21:50:51.785Z,19.300000
2019-05-07T21:53:22.955Z,19.300000
2019-05-07T21:56:01.814Z,13.900000
2019-05-07T21:58:32.947Z,13.900000
2019-05-07T22:01:03.364Z,23.900000
2019-05-07T22:03:34.993Z,23.900000
2019-05-07T22:06:05.517Z,18.100000
2019-05-07T22:08:35.966Z,18.100000
2019-05-07T22:11:06.398Z,16.000000
2019-05-07T22:13:36.713Z,16.000000
2019-05-07T22:16:07.127Z,14.600000
2019-05-07T22:18:37.537Z,14.600000
2019-05-07T22:21:12.855Z,21.300000
2019-05-07T22:23:45.183Z,21.300000
2019-05-07T22:26:22.218Z,20.600000
2019-05-07T22:28:54.138Z,20.600000
2019-05-07T22:31:24.563Z,19.400000
2019-05-07T22:33:54.872Z,19.400000
2019-05-07T22:36:25.155Z,16.200000
2019-05-07T22:38:55.523Z,16.200000
2019-05-07T22:41:25.954Z,23.800000
2019-05-07T22:43:56.384Z,23.800000
2019-05-07T22:46:26.734Z,19.500000
2019-05-07T22:48:57.067Z,19.500000
2019-05-07T22:51:27.389Z,18.800000
2019-05-07T22:53:57.604Z,18.800000
2019-05-07T22:56:35.053Z,17.200000
2019-05-07T22:59:07.799Z,17.200000
2019-05-07T23:01:38.115Z,18.400000
2019-05-07T23:04:08.551Z,18.400000
2019-05-07T23:06:39.080Z,20.100000
2019-05-07T23:09:09.379Z,20.100000
2019-05-07T23:11:39.702Z,21.000000
2019-05-07T23:14:11.815Z,21.000000
2019-05-07T23:16:43.063Z,13.900000
2019-05-07T23:19:14.097Z,13.900000
2019-05-07T23:21:44.381Z,19.200000
2019-05-07T23:24:14.804Z,19.200000
2019-05-07T23:26:49.999Z,17.900000
2019-05-07T23:29:22.411Z,17.900000
2019-05-07T23:31:55.214Z,17.600000
2019-05-07T23:34:25.692Z,17.600000
2019-05-07T23:36:55.966Z,21.100000
2019-05-07T23:39:26.375Z,21.100000
2019-05-07T23:41:56.687Z,19.600000
2019-05-07T23:44:27.066Z,19.600000
2019-05-07T23:46:57.485Z,19.700000
2019-05-07T23:49:27.887Z,19.700000
2019-05-07T23:51:58.183Z,14.500000
2019-05-07T23:54:28.485Z,14.500000
2019-05-07T23:57:05.770Z,24.300000
2019-05-07T23:59:39.150Z,21.300000
